Time;durP1;ratioP1;P1;durP2;ratioP2;P2;SDS_P1;SDS_P2;PMS_P1;PMS_P2;Temp;Humidity;BMP_temperature;BMP_pressure;BME280_temperature;BME280_humidity;BME280_pressure;Samples;Min_cycle;Max_cycle;Signal;HPM_P1;HPM_P2
2022/01/22 00:00:47;;;;;;;9.13;7.20;;;7.60;99.90;;;;;;4983038;28;20207;-77
2022/01/22 00:03:13;;;;;;;10.90;6.33;;;7.60;99.90;;;;;;4987539;28;20176;-77
2022/01/22 00:05:39;;;;;;;10.60;6.87;;;7.60;99.90;;;;;;4965522;28;21011;-77
2022/01/22 00:08:05;;;;;;;11.65;5.90;;;7.60;99.90;;;;;;4967444;28;20546;-77
2022/01/22 00:10:32;;;;;;;13.03;7.50;;;7.60;99.90;;;;;;4986950;28;20175;-77
2022/01/22 00:15:29;;;;;;;10.20;7.30;;;7.60;99.90;;;;;;4979152;28;20210;-77
2022/01/22 00:17:56;;;;;;;12.50;7.30;;;7.60;99.90;;;;;;4977371;28;20739;-78
2022/01/22 00:20:24;;;;;;;17.45;7.90;;;7.60;99.90;;;;;;4965874;28;20283;-77
2022/01/22 00:22:50;;;;;;;17.33;8.10;;;7.60;99.90;;;;;;4983806;28;20199;-78
2022/01/22 00:25:18;;;;;;;15.18;7.43;;;7.60;99.90;;;;;;4987112;28;20175;-77
2022/01/22 00:27:45;;;;;;;10.55;7.47;;;7.60;99.90;;;;;;4987623;28;20186;-77
2022/01/22 00:30:21;;;;;;;15.63;9.27;;;7.60;99.90;;;;;;4983652;28;20186;-77
2022/01/22 00:32:47;;;;;;;10.77;7.97;;;7.60;99.90;;;;;;4992969;28;20222;-77
2022/01/22 00:35:15;;;;;;;12.68;7.07;;;7.60;99.90;;;;;;4972704;28;20190;-77
2022/01/22 00:37:43;;;;;;;9.35;8.45;;;7.60;99.90;;;;;;4973774;28;20179;-78
2022/01/22 00:40:10;;;;;;;13.98;8.65;;;7.60;99.90;;;;;;4982465;28;20328;-78
2022/01/22 00:42:40;;;;;;;11.52;7.32;;;7.60;99.90;;;;;;4990766;28;20234;-77
2022/01/22 00:45:06;;;;;;;8.77;7.72;;;7.60;99.90;;;;;;4983552;28;20202;-77
2022/01/22 00:47:32;;;;;;;14.50;8.63;;;7.60;99.90;;;;;;4982415;28;20248;-77
2022/01/22 00:49:58;;;;;;;10.63;7.87;;;7.60;99.90;;;;;;5005839;28;20191;-77
2022/01/22 00:52:24;;;;;;;15.43;7.57;;;7.60;99.90;;;;;;4968489;28;20614;-77
2022/01/22 00:54:49;;;;;;;8.73;7.83;;;7.60;99.90;;;;;;4977407;28;20230;-77
2022/01/22 00:57:16;;;;;;;10.63;8.10;;;7.60;99.90;;;;;;4978654;28;20583;-78
2022/01/22 00:59:41;;;;;;;8.63;7.47;;;7.60;99.90;;;;;;4995356;28;20267;-77
2022/01/22 01:02:07;;;;;;;11.60;7.97;;;7.50;99.90;;;;;;4986548;28;20187;-77
2022/01/22 01:04:35;;;;;;;10.33;6.83;;;7.50;99.90;;;;;;4980687;28;20547;-77
2022/01/22 01:07:01;;;;;;;9.60;7.40;;;7.60;99.90;;;;;;4994749;28;20230;-78
2022/01/22 01:09:27;;;;;;;8.50;7.43;;;7.60;99.90;;;;;;4994917;28;20659;-77
2022/01/22 01:11:58;;;;;;;8.70;6.50;;;7.60;99.90;;;;;;4976343;28;20206;-77
2022/01/22 01:14:33;;;;;;;10.02;7.53;;;7.60;99.90;;;;;;4973662;28;20186;-77
2022/01/22 01:33:20;;;;;;;13.20;8.85;;;7.60;99.90;;;;;;4980997;28;20183;-77
2022/01/22 01:35:46;;;;;;;9.75;8.07;;;7.50;99.90;;;;;;4947823;28;20215;-78
2022/01/22 01:38:11;;;;;;;20.20;9.40;;;7.50;99.90;;;;;;4961635;28;20262;-78
2022/01/22 01:40:41;;;;;;;10.75;7.53;;;7.50;99.90;;;;;;4952699;28;20233;-77
2022/01/22 01:43:16;;;;;;;12.38;9.88;;;7.50;99.90;;;;;;4984662;28;20190;-77
2022/01/22 01:45:44;;;;;;;15.95;9.02;;;7.50;99.90;;;;;;4970142;28;20277;-77
2022/01/22 01:48:16;;;;;;;10.37;8.37;;;7.40;99.90;;;;;;4978068;28;20217;-77
2022/01/22 01:50:43;;;;;;;13.23;9.80;;;7.40;99.90;;;;;;4981263;28;20243;-77
2022/01/22 01:53:20;;;;;;;10.55;9.35;;;7.40;99.90;;;;;;4959464;28;20179;-77
2022/01/22 01:56:02;;;;;;;13.63;9.20;;;7.40;99.90;;;;;;4973389;28;20183;-77
2022/01/22 01:58:33;;;;;;;10.60;9.20;;;7.40;99.90;;;;;;4970862;28;20230;-77
2022/01/22 02:01:00;;;;;;;14.73;12.35;;;7.40;99.90;;;;;;4965655;28;20289;-77
2022/01/22 02:03:27;;;;;;;12.98;9.82;;;7.40;99.90;;;;;;4969863;28;20179;-77
2022/01/22 02:06:03;;;;;;;13.07;10.45;;;7.30;99.90;;;;;;4975178;28;20266;-77
2022/01/22 02:08:31;;;;;;;10.68;9.38;;;7.30;99.90;;;;;;4960547;28;20278;-77
2022/01/22 02:11:03;;;;;;;9.77;8.88;;;7.30;99.90;;;;;;4948322;28;20206;-78
2022/01/22 02:14:10;;;;;;;11.23;9.77;;;7.30;99.90;;;;;;4958821;28;20233;-78
2022/01/22 02:25:16;;;;;;;12.70;9.85;;;7.30;99.90;;;;;;4968982;28;20697;-78
2022/01/22 02:27:43;;;;;;;14.07;10.40;;;7.30;99.90;;;;;;4971327;28;20214;-77
2022/01/22 02:30:21;;;;;;;12.82;10.20;;;7.30;99.90;;;;;;4963606;28;20260;-77
2022/01/22 02:33:38;;;;;;;11.32;10.10;;;7.30;99.90;;;;;;4938302;28;20286;-78
2022/01/22 02:36:20;;;;;;;12.25;10.93;;;7.30;99.90;;;;;;4965034;28;20183;-78
2022/01/22 02:41:22;;;;;;;14.45;10.60;;;7.30;99.90;;;;;;4978371;28;20218;-78
2022/01/22 02:43:48;;;;;;;14.43;11.65;;;7.30;99.90;;;;;;4967281;28;20186;-78
2022/01/22 02:46:19;;;;;;;13.98;11.75;;;7.40;99.90;;;;;;4971144;28;20638;-78
2022/01/22 02:48:45;;;;;;;12.70;11.50;;;7.40;99.90;;;;;;4943991;28;20256;-78
2022/01/22 02:51:11;;;;;;;12.40;11.18;;;7.40;99.90;;;;;;4954997;28;20623;-78
2022/01/22 02:53:37;;;;;;;13.57;10.90;;;7.40;99.90;;;;;;4969547;28;20215;-78
2022/01/22 02:56:10;;;;;;;12.40;11.20;;;7.40;99.90;;;;;;4967248;28;20609;-78
2022/01/22 02:58:37;;;;;;;14.02;12.63;;;7.40;99.90;;;;;;4961948;28;20198;-78
2022/01/22 03:01:04;;;;;;;13.07;11.75;;;7.40;99.90;;;;;;4965502;28;20219;-78
2022/01/22 03:03:30;;;;;;;14.83;12.37;;;7.40;99.90;;;;;;4983617;28;20656;-78
2022/01/22 03:05:56;;;;;;;13.57;12.18;;;7.40;99.90;;;;;;4974565;28;20235;-78
2022/01/22 03:08:27;;;;;;;13.63;12.13;;;7.40;99.90;;;;;;4973260;28;20209;-78
2022/01/22 03:10:54;;;;;;;14.27;12.77;;;7.40;99.90;;;;;;4946438;28;20231;-78
2022/01/22 03:14:09;;;;;;;14.65;11.45;;;7.40;99.90;;;;;;4970914;28;20590;-78
2022/01/22 03:16:29;;;;;;;19.00;11.20;;;7.30;99.90;;;;;;4960356;28;20518;-78
2022/01/22 03:19:03;;;;;;;12.50;11.20;;;7.30;99.90;;;;;;4969957;28;20619;-78
2022/01/22 03:21:37;;;;;;;13.45;11.98;;;7.30;99.90;;;;;;4945585;28;20680;-78
2022/01/22 03:29:35;;;;;;;14.90;13.30;;;7.40;99.90;;;;;;4957069;28;20183;-78
2022/01/22 03:32:03;;;;;;;15.48;13.48;;;7.30;99.90;;;;;;4961736;28;20284;-78
2022/01/22 03:34:35;;;;;;;17.38;12.90;;;7.30;99.90;;;;;;4966143;28;20195;-78
2022/01/22 03:37:01;;;;;;;18.08;12.10;;;7.30;99.90;;;;;;4968433;28;20179;-78
2022/01/22 03:39:28;;;;;;;16.60;12.77;;;7.30;99.90;;;;;;4950602;28;20219;-78
2022/01/22 03:41:53;;;;;;;15.27;12.13;;;7.30;99.90;;;;;;4952910;28;20278;-78
2022/01/22 03:44:20;;;;;;;18.92;12.32;;;7.40;99.90;;;;;;4985294;28;20167;-78
2022/01/22 03:46:46;;;;;;;19.25;14.48;;;7.40;99.90;;;;;;4970451;28;20179;-78
2022/01/22 03:49:13;;;;;;;15.23;12.93;;;7.40;99.90;;;;;;4966599;28;20207;-78
2022/01/22 03:51:39;;;;;;;16.40;14.10;;;7.40;99.90;;;;;;4953890;28;20729;-78
2022/01/22 03:54:04;;;;;;;14.60;11.83;;;7.40;99.90;;;;;;4966264;28;20257;-78
2022/01/22 03:56:30;;;;;;;22.20;13.90;;;7.40;99.90;;;;;;4963731;28;21203;-78
2022/01/22 03:59:08;;;;;;;15.55;11.70;;;7.50;99.90;;;;;;4973324;28;20175;-78
2022/01/22 04:02:05;;;;;;;13.80;11.88;;;7.50;99.90;;;;;;4989096;28;20211;-78
2022/01/22 04:04:55;;;;;;;12.52;11.13;;;7.50;99.90;;;;;;4994687;28;20691;-79
2022/01/22 04:07:53;;;;;;;13.45;11.98;;;7.50;99.90;;;;;;4982399;28;20551;-78
2022/01/22 04:10:11;;;;;;;18.60;11.95;;;7.50;99.90;;;;;;4966383;28;20194;-78
2022/01/22 04:15:05;;;;;;;15.45;11.65;;;7.50;99.90;;;;;;4970243;28;20185;-77
2022/01/22 04:25:28;;;;;;;17.15;12.30;;;7.50;99.90;;;;;;4978664;28;20177;-77
2022/01/22 04:27:56;;;;;;;13.50;11.30;;;7.50;99.90;;;;;;4977128;28;20182;-78
2022/01/22 04:30:23;;;;;;;16.73;13.25;;;7.60;99.90;;;;;;4979371;28;20218;-78
2022/01/22 04:32:50;;;;;;;17.17;14.18;;;7.60;99.90;;;;;;4973301;28;20195;-78
2022/01/22 04:35:19;;;;;;;14.27;12.40;;;7.60;99.90;;;;;;4962703;28;20322;-78
2022/01/22 04:37:46;;;;;;;13.65;11.55;;;7.60;99.90;;;;;;4978520;28;20194;-77
2022/01/22 04:40:13;;;;;;;12.23;10.77;;;7.60;99.90;;;;;;4981621;28;20231;-78
2022/01/22 04:42:40;;;;;;;15.48;12.05;;;7.60;99.90;;;;;;4981720;28;20199;-77
2022/01/22 04:47:49;;;;;;;17.10;13.30;;;7.60;99.90;;;;;;4969174;28;20321;-77
2022/01/22 04:55:39;;;;;;;18.38;13.68;;;7.60;99.90;;;;;;4970767;28;20229;-77
2022/01/22 04:58:06;;;;;;;18.70;12.70;;;7.70;99.90;;;;;;4976648;28;20294;-78
2022/01/22 05:00:36;;;;;;;13.48;12.07;;;7.70;99.90;;;;;;4967399;28;20200;-78
2022/01/22 05:03:08;;;;;;;15.07;12.90;;;7.70;99.90;;;;;;4984648;28;20182;-78
2022/01/22 05:05:43;;;;;;;16.55;11.93;;;7.70;99.90;;;;;;4935611;28;20175;-78
2022/01/22 05:08:29;;;;;;;14.07;11.48;;;7.70;99.90;;;;;;4964300;28;20187;-78
2022/01/22 05:11:10;;;;;;;18.88;12.57;;;7.70;99.90;;;;;;4948006;28;20692;-78
2022/01/22 05:13:38;;;;;;;17.85;13.90;;;7.70;99.90;;;;;;4960134;28;20186;-77
2022/01/22 05:16:08;;;;;;;15.77;13.77;;;7.70;99.90;;;;;;4952158;28;20685;-78
2022/01/22 05:18:42;;;;;;;14.52;12.23;;;7.70;99.90;;;;;;4949443;28;20187;-77
2022/01/22 05:21:12;;;;;;;16.98;13.32;;;7.80;99.90;;;;;;4968869;28;20278;-77
2022/01/22 05:23:40;;;;;;;20.20;13.27;;;7.80;99.90;;;;;;4965116;28;20176;-79
2022/01/22 05:26:22;;;;;;;14.95;13.43;;;7.80;99.90;;;;;;4971029;28;20194;-78
2022/01/22 05:29:13;;;;;;;14.07;12.68;;;7.80;99.90;;;;;;4982337;28;20175;-78
2022/01/22 05:32:18;;;;;;;16.55;12.35;;;7.80;99.90;;;;;;4986221;28;20556;-77
2022/01/22 05:37:43;;;;;;;15.75;14.00;;;7.80;99.90;;;;;;4964070;28;20179;-77
2022/01/22 05:40:09;;;;;;;19.33;13.97;;;7.80;99.90;;;;;;4957239;28;20258;-77
2022/01/22 05:42:36;;;;;;;17.70;13.93;;;7.80;99.90;;;;;;4962860;28;20706;-77
2022/01/22 05:45:06;;;;;;;17.73;14.95;;;7.80;99.90;;;;;;4954167;28;20605;-77
2022/01/22 05:47:32;;;;;;;21.98;15.15;;;7.80;99.90;;;;;;4961782;28;20210;-77
2022/01/22 05:49:59;;;;;;;23.40;15.37;;;7.90;99.90;;;;;;4981622;28;20225;-77
2022/01/22 05:52:36;;;;;;;19.65;14.52;;;7.80;99.90;;;;;;4951956;28;20199;-77
2022/01/22 06:00:26;;;;;;;16.85;13.73;;;7.90;99.90;;;;;;4970403;28;20210;-77
2022/01/22 06:03:04;;;;;;;19.40;13.90;;;7.90;99.90;;;;;;4943826;28;20216;-77
2022/01/22 06:05:29;;;;;;;17.43;14.67;;;7.90;99.90;;;;;;4954094;28;20186;-77
2022/01/22 06:07:56;;;;;;;17.55;14.02;;;7.90;99.90;;;;;;4949927;28;20599;-77
2022/01/22 06:10:28;;;;;;;18.02;14.27;;;7.90;99.90;;;;;;4951420;28;20179;-77
2022/01/22 06:13:11;;;;;;;17.25;13.77;;;7.90;99.90;;;;;;4963173;28;20187;-77
2022/01/22 06:15:38;;;;;;;20.40;16.92;;;7.90;99.90;;;;;;4961172;28;20306;-77
2022/01/22 06:18:17;;;;;;;20.00;15.75;;;7.90;99.90;;;;;;4960486;28;20191;-77
2022/01/22 06:20:45;;;;;;;21.05;16.58;;;7.90;99.90;;;;;;4974833;28;20202;-76
2022/01/22 06:23:11;;;;;;;20.80;17.23;;;7.90;99.90;;;;;;4967819;28;20174;-77
2022/01/22 06:25:37;;;;;;;19.58;15.55;;;7.90;99.90;;;;;;4963615;28;20304;-77
2022/01/22 06:28:13;;;;;;;19.38;15.65;;;7.90;99.90;;;;;;4976870;28;20176;-78
2022/01/22 06:30:40;;;;;;;23.35;17.13;;;7.90;99.90;;;;;;4974532;28;20539;-78
2022/01/22 06:33:06;;;;;;;18.95;14.73;;;7.90;99.90;;;;;;4956952;28;20226;-78
2022/01/22 06:35:34;;;;;;;17.73;15.77;;;7.90;99.90;;;;;;4968610;28;20179;-78
2022/01/22 06:38:03;;;;;;;21.63;17.15;;;7.90;99.90;;;;;;4974841;28;20256;-79
2022/01/22 06:44:04;;;;;;;21.27;17.10;;;7.90;99.90;;;;;;4967146;28;20281;-78
2022/01/22 06:46:48;;;;;;;17.67;15.27;;;7.90;99.90;;;;;;4966731;28;20183;-78
2022/01/22 06:49:32;;;;;;;19.63;17.55;;;7.90;99.90;;;;;;4991163;28;20214;-78
2022/01/22 06:52:30;;;;;;;18.17;14.85;;;7.90;99.90;;;;;;4990987;28;20265;-78
2022/01/22 06:55:02;;;;;;;18.80;16.77;;;7.90;99.90;;;;;;4970141;28;20186;-78
2022/01/22 06:57:29;;;;;;;23.50;17.85;;;7.90;99.90;;;;;;4968583;28;20175;-78
2022/01/22 06:59:55;;;;;;;18.23;16.23;;;7.90;99.90;;;;;;4971319;28;20211;-76
2022/01/22 07:02:23;;;;;;;19.70;16.10;;;7.90;99.90;;;;;;4966325;28;20231;-78
2022/01/22 07:04:49;;;;;;;21.40;17.38;;;8.00;99.90;;;;;;4964957;28;20171;-78
2022/01/22 07:07:35;;;;;;;20.60;16.90;;;8.00;99.90;;;;;;4990886;28;20179;-78
2022/01/22 07:10:01;;;;;;;21.70;19.35;;;8.00;99.90;;;;;;4971010;28;20202;-77
2022/01/22 07:12:29;;;;;;;19.90;17.75;;;8.00;99.90;;;;;;4976347;28;20320;-77
2022/01/22 07:14:55;;;;;;;21.10;17.33;;;8.00;99.90;;;;;;4970028;28;20677;-77
2022/01/22 07:17:20;;;;;;;20.10;17.75;;;8.00;99.90;;;;;;4971662;28;20951;-77
2022/01/22 07:19:52;;;;;;;24.75;17.92;;;8.00;99.90;;;;;;4980516;28;20582;-77
2022/01/22 07:25:19;;;;;;;16.45;14.75;;;8.00;99.90;;;;;;4959856;28;20248;-77
2022/01/22 07:27:46;;;;;;;19.15;16.35;;;8.10;99.90;;;;;;4960706;28;20187;-78
2022/01/22 07:30:12;;;;;;;20.30;17.75;;;8.10;99.90;;;;;;4976186;28;20200;-78
2022/01/22 07:32:43;;;;;;;23.50;19.30;;;8.10;99.90;;;;;;4961459;28;20195;-78
2022/01/22 07:35:11;;;;;;;19.50;16.98;;;8.10;99.90;;;;;;4977620;28;20187;-77
2022/01/22 07:37:39;;;;;;;23.65;19.73;;;8.10;99.90;;;;;;4964724;28;20266;-78
2022/01/22 07:40:14;;;;;;;22.50;18.92;;;8.10;99.90;;;;;;4970245;28;20202;-78
2022/01/22 07:43:00;;;;;;;22.35;19.63;;;8.10;99.90;;;;;;4990122;28;20202;-78
2022/01/22 07:45:45;;;;;;;23.05;19.15;;;8.10;99.90;;;;;;4987072;28;20179;-78
2022/01/22 07:48:18;;;;;;;22.63;18.83;;;8.20;99.90;;;;;;4977118;28;20681;-78
2022/01/22 07:51:17;;;;;;;22.45;16.85;;;8.20;99.90;;;;;;4945847;28;20223;-78
2022/01/22 07:53:44;;;;;;;24.30;19.02;;;8.10;99.90;;;;;;4958769;28;20552;-78
2022/01/22 07:56:16;;;;;;;21.60;17.83;;;8.20;99.90;;;;;;4953387;28;20214;-78
2022/01/22 07:58:42;;;;;;;22.63;18.20;;;8.20;99.90;;;;;;4973528;28;20269;-78
2022/01/22 08:01:09;;;;;;;24.70;18.02;;;8.20;99.90;;;;;;4958551;28;20741;-78
2022/01/22 08:03:53;;;;;;;22.52;17.55;;;8.20;99.90;;;;;;4968542;28;20535;-78
2022/01/22 08:06:38;;;;;;;21.83;16.90;;;8.20;99.90;;;;;;4998524;28;20191;-78
2022/01/22 08:09:22;;;;;;;18.73;16.45;;;8.20;99.90;;;;;;4987575;28;20234;-78
2022/01/22 08:11:57;;;;;;;18.80;16.83;;;8.20;99.90;;;;;;4994486;28;20607;-78
2022/01/22 08:14:23;;;;;;;21.80;18.63;;;8.30;99.90;;;;;;4967161;28;20187;-77
2022/01/22 08:16:49;;;;;;;22.30;17.63;;;8.30;99.90;;;;;;4971084;28;20582;-77
2022/01/22 08:19:18;;;;;;;21.85;17.33;;;8.30;99.90;;;;;;4975037;28;20558;-78
2022/01/22 08:21:46;;;;;;;23.48;18.50;;;8.30;99.90;;;;;;4971954;28;20199;-77
2022/01/22 08:24:44;;;;;;;22.60;18.30;;;8.30;99.90;;;;;;4939636;28;20576;-78
2022/01/22 08:27:40;;;;;;;21.80;18.05;;;8.40;99.90;;;;;;4966105;28;20266;-78
2022/01/22 08:30:08;;;;;;;21.67;17.93;;;8.40;99.90;;;;;;4981091;28;20499;-78
2022/01/22 08:37:46;;;;;;;21.42;18.38;;;8.40;99.90;;;;;;4973673;28;20176;-78
2022/01/22 08:40:12;;;;;;;22.97;19.20;;;8.50;99.90;;;;;;4974872;28;20210;-78
2022/01/22 08:42:41;;;;;;;22.20;19.33;;;8.50;99.90;;;;;;4978901;28;20621;-78
2022/01/22 08:45:07;;;;;;;26.10;20.17;;;8.50;99.90;;;;;;4975774;28;20207;-78
2022/01/22 08:47:34;;;;;;;26.40;18.75;;;8.60;99.90;;;;;;4970483;28;20591;-78
2022/01/22 08:50:00;;;;;;;28.80;19.60;;;8.60;99.90;;;;;;4968538;28;20180;-77
2022/01/22 08:52:31;;;;;;;21.30;17.38;;;8.60;99.90;;;;;;4961553;28;20620;-78
2022/01/22 08:54:57;;;;;;;21.77;18.17;;;8.60;99.90;;;;;;4975266;28;20234;-78
2022/01/22 08:57:23;;;;;;;24.13;19.83;;;8.60;99.90;;;;;;4973082;28;20270;-78
2022/01/22 09:00:12;;;;;;;23.65;18.88;;;8.70;99.90;;;;;;4983888;28;20210;-77
2022/01/22 09:02:50;;;;;;;21.10;17.73;;;8.70;99.90;;;;;;4972812;28;20274;-77
2022/01/22 09:05:42;;;;;;;21.40;18.55;;;8.70;99.90;;;;;;4986021;28;20191;-77
2022/01/22 09:08:27;;;;;;;20.27;18.20;;;8.70;99.90;;;;;;4986091;28;20235;-77
2022/01/22 09:11:22;;;;;;;20.13;16.95;;;8.80;99.90;;;;;;4959925;28;20203;-81
2022/01/22 09:13:53;;;;;;;25.80;20.10;;;8.80;99.90;;;;;;4964709;28;20203;-81
2022/01/22 09:16:22;;;;;;;22.63;17.95;;;8.90;99.90;;;;;;4963473;28;20190;-81
2022/01/22 09:18:50;;;;;;;22.83;17.70;;;8.90;99.90;;;;;;4984734;28;20662;-81
2022/01/22 09:21:16;;;;;;;23.58;18.80;;;9.00;99.90;;;;;;4934898;28;20676;-81
2022/01/22 09:23:45;;;;;;;19.90;17.90;;;9.00;99.90;;;;;;4968379;28;20194;-81
2022/01/22 09:26:14;;;;;;;22.40;18.50;;;9.00;99.90;;;;;;4975978;28;20188;-81
2022/01/22 09:28:40;;;;;;;19.77;17.37;;;9.00;99.90;;;;;;4965078;28;20219;-81
2022/01/22 09:31:06;;;;;;;27.90;24.20;;;9.10;99.90;;;;;;5068950;23;20784;-80
2022/01/22 09:33:32;;;;;;;26.85;21.83;;;9.00;99.90;;;;;;5065201;28;20207;-79
2022/01/22 09:36:18;;;;;;;25.13;22.40;;;9.00;99.90;;;;;;5059243;28;20700;-80
2022/01/22 09:39:16;;;;;;;25.50;20.90;;;9.00;99.90;;;;;;5056694;28;20806;-80
2022/01/22 09:42:06;;;;;;;21.98;19.42;;;9.10;99.90;;;;;;5039015;28;20739;-79
2022/01/22 09:44:33;;;;;;;26.80;20.70;;;9.30;99.90;;;;;;5077819;28;20215;-79
2022/01/22 09:47:26;;;;;;;19.92;16.38;;;9.40;99.90;;;;;;5027624;28;20607;-80
2022/01/22 09:50:07;;;;;;;18.08;15.95;;;9.60;99.90;;;;;;5057114;28;20185;-80
2022/01/22 09:52:39;;;;;;;21.63;17.67;;;9.70;99.90;;;;;;5059849;28;20707;-80
2022/01/22 09:55:21;;;;;;;18.73;14.95;;;9.80;99.90;;;;;;5027298;28;20279;-80
2022/01/22 09:58:16;;;;;;;18.13;15.98;;;9.90;99.90;;;;;;5067939;28;20168;-81
2022/01/22 10:01:31;;;;;;;17.00;13.90;;;10.10;99.90;;;;;;5025742;28;20354;-80
2022/01/22 10:04:06;;;;;;;16.13;14.00;;;10.20;99.90;;;;;;5053445;28;20202;-81
2022/01/22 10:06:55;;;;;;;20.02;14.18;;;10.20;99.90;;;;;;5052848;28;20525;-80
2022/01/22 10:09:33;;;;;;;14.23;12.73;;;10.20;99.90;;;;;;5053175;28;20210;-79
2022/01/22 10:12:21;;;;;;;16.02;13.48;;;10.20;99.90;;;;;;5034780;28;20192;-79
2022/01/22 10:15:09;;;;;;;19.30;15.35;;;10.10;99.90;;;;;;5062516;28;20186;-80
2022/01/22 10:17:58;;;;;;;15.25;13.52;;;10.10;99.90;;;;;;5039562;28;20551;-79
2022/01/22 10:20:23;;;;;;;19.20;16.55;;;10.10;99.90;;;;;;5046003;28;20208;-81
2022/01/22 10:23:20;;;;;;;16.70;14.90;;;10.00;99.90;;;;;;5060959;28;20534;-78
2022/01/22 10:25:55;;;;;;;18.23;16.25;;;9.90;99.90;;;;;;5063759;28;20572;-79
2022/01/22 10:28:23;;;;;;;19.88;16.10;;;9.90;99.90;;;;;;5043241;28;20184;-79
2022/01/22 10:30:58;;;;;;;18.02;16.13;;;9.80;99.90;;;;;;5060506;28;20245;-81
2022/01/22 10:33:39;;;;;;;18.80;16.17;;;9.70;99.90;;;;;;5036760;28;20180;-80
2022/01/22 10:36:39;;;;;;;16.08;14.48;;;9.70;99.90;;;;;;5035882;28;20653;-79
2022/01/22 10:39:26;;;;;;;20.60;16.02;;;9.60;99.90;;;;;;5051178;28;20218;-79
2022/01/22 10:41:52;;;;;;;20.35;15.85;;;9.50;99.90;;;;;;5046963;28;20536;-79
2022/01/22 10:44:37;;;;;;;19.52;17.45;;;9.50;99.90;;;;;;5051460;28;20176;-79
2022/01/22 10:47:04;;;;;;;24.27;17.67;;;9.40;99.90;;;;;;5040583;28;20195;-79
2022/01/22 10:49:30;;;;;;;19.88;17.77;;;9.40;99.90;;;;;;5050589;28;20177;-80
2022/01/22 10:52:07;;;;;;;21.20;16.42;;;9.40;99.90;;;;;;5066804;28;20192;-78
2022/01/22 10:54:37;;;;;;;20.00;16.73;;;9.30;99.90;;;;;;5051711;28;20264;-78
2022/01/22 10:57:25;;;;;;;20.58;16.83;;;9.40;99.90;;;;;;5066943;28;20183;-78
2022/01/22 10:59:52;;;;;;;17.35;15.55;;;9.40;99.90;;;;;;5044478;28;20201;-78
2022/01/22 11:02:36;;;;;;;20.58;17.23;;;9.40;99.90;;;;;;5061109;28;20208;-78
2022/01/22 11:05:03;;;;;;;23.38;17.67;;;9.40;99.90;;;;;;5025969;28;20570;-79
2022/01/22 11:07:29;;;;;;;18.77;16.52;;;9.50;99.90;;;;;;5045310;28;20168;-78
2022/01/22 11:09:55;;;;;;;23.65;17.75;;;9.50;99.90;;;;;;5041558;28;20302;-79
2022/01/22 11:12:21;;;;;;;18.77;16.87;;;9.60;99.90;;;;;;5051626;28;20207;-78
2022/01/22 11:14:47;;;;;;;15.80;14.18;;;9.60;99.90;;;;;;5060644;28;20222;-78
2022/01/22 11:17:14;;;;;;;19.53;15.97;;;9.70;99.90;;;;;;5062120;28;20177;-79
2022/01/22 11:19:44;;;;;;;18.67;15.50;;;9.70;99.90;;;;;;5043840;28;20212;-78
2022/01/22 11:22:12;;;;;;;17.75;15.95;;;9.80;99.90;;;;;;5049187;28;20266;-79
2022/01/22 11:24:43;;;;;;;19.83;16.00;;;9.80;99.90;;;;;;5062058;28;20204;-78
2022/01/22 11:27:12;;;;;;;16.50;14.85;;;9.80;99.90;;;;;;5042017;28;20176;-78
2022/01/22 11:29:57;;;;;;;19.77;16.70;;;9.90;99.90;;;;;;5041623;28;20725;-79
2022/01/22 11:32:33;;;;;;;17.38;14.77;;;9.90;99.90;;;;;;5062399;28;20584;-78
2022/01/22 11:35:05;;;;;;;17.63;14.63;;;10.00;99.90;;;;;;5063926;28;20215;-77
2022/01/22 11:37:39;;;;;;;17.95;14.30;;;10.00;99.90;;;;;;5066717;28;20191;-79
2022/01/22 11:40:13;;;;;;;19.52;15.77;;;10.00;99.90;;;;;;5047517;28;20200;-79
2022/01/22 11:43:04;;;;;;;14.70;13.00;;;10.10;99.90;;;;;;5034810;28;20200;-78
2022/01/22 11:45:45;;;;;;;18.67;14.80;;;10.10;99.90;;;;;;5026755;28;20212;-78
2022/01/22 11:48:27;;;;;;;17.05;12.23;;;10.20;99.90;;;;;;5062673;28;20180;-79
2022/01/22 11:50:55;;;;;;;16.75;13.35;;;10.30;99.90;;;;;;5061197;28;20193;-78
2022/01/22 11:53:29;;;;;;;21.08;14.00;;;10.40;99.90;;;;;;5041426;28;20188;-78
2022/01/22 11:56:10;;;;;;;14.13;12.70;;;10.50;99.90;;;;;;5061499;28;20172;-79
2022/01/22 11:58:58;;;;;;;14.38;11.98;;;10.50;99.90;;;;;;5046707;28;20180;-79
2022/01/22 12:01:53;;;;;;;16.33;13.48;;;10.60;99.90;;;;;;5063817;28;20761;-79
2022/01/22 12:04:24;;;;;;;14.80;13.38;;;10.60;99.90;;;;;;5048028;28;20591;-78
2022/01/22 12:07:11;;;;;;;14.43;13.02;;;10.60;99.90;;;;;;5046016;28;20184;-79
2022/01/22 12:09:52;;;;;;;17.80;14.57;;;10.60;99.90;;;;;;5063827;28;20206;-78
2022/01/22 12:15:20;;;;;;;13.73;12.30;;;10.50;99.90;;;;;;5047978;28;20550;-78
2022/01/22 12:17:50;;;;;;;15.80;14.00;;;10.50;99.90;;;;;;5064018;28;20181;-78
2022/01/22 12:23:34;;;;;;;15.90;13.27;;;10.40;99.90;;;;;;5064816;28;20187;-78
2022/01/22 12:26:02;;;;;;;14.95;12.73;;;10.40;99.90;;;;;;5025161;28;20191;-78
2022/01/22 12:28:38;;;;;;;15.20;12.52;;;10.30;99.90;;;;;;5061712;28;20227;-79
2022/01/22 12:31:09;;;;;;;17.25;13.20;;;10.20;99.90;;;;;;5045765;28;20653;-78
2022/01/22 12:33:38;;;;;;;16.85;13.63;;;10.20;99.90;;;;;;5052086;28;20196;-80
2022/01/22 12:36:17;;;;;;;19.88;14.73;;;10.10;99.90;;;;;;5043945;28;20181;-79
2022/01/22 12:46:58;;;;;;;19.75;15.27;;;10.00;99.90;;;;;;5059964;28;20249;-79
2022/01/22 12:49:24;;;;;;;18.20;14.43;;;10.00;99.90;;;;;;5051486;28;20375;-79
2022/01/22 12:51:55;;;;;;;20.10;15.27;;;10.00;99.90;;;;;;5065183;28;20188;-80
2022/01/22 12:54:32;;;;;;;19.67;14.80;;;10.00;99.90;;;;;;5026875;28;20185;-81
2022/01/22 12:57:13;;;;;;;19.95;14.15;;;10.00;99.90;;;;;;5051986;28;20322;-78
2022/01/22 13:00:06;;;;;;;17.48;14.98;;;10.00;99.90;;;;;;5060973;28;20173;-78
2022/01/22 13:02:58;;;;;;;15.85;11.82;;;10.10;99.90;;;;;;5063424;28;20283;-78
2022/01/22 13:05:26;;;;;;;14.15;12.40;;;10.10;99.90;;;;;;5062152;28;20192;-78
2022/01/22 13:07:59;;;;;;;15.73;11.68;;;10.10;99.90;;;;;;5066253;28;20175;-78
2022/01/22 13:10:45;;;;;;;16.80;13.40;;;10.10;99.90;;;;;;5042322;28;20208;-79
2022/01/22 13:13:17;;;;;;;28.92;18.50;;;10.20;99.90;;;;;;5042833;28;20212;-79
2022/01/22 13:15:42;;;;;;;24.10;17.77;;;10.20;99.90;;;;;;5064587;28;20173;-79
2022/01/22 13:18:09;;;;;;;23.93;16.97;;;10.20;99.90;;;;;;5036495;28;20481;-79
2022/01/22 13:20:38;;;;;;;16.95;15.13;;;10.20;99.90;;;;;;5076139;28;20231;-80
2022/01/22 13:23:23;;;;;;;18.40;15.77;;;10.20;99.90;;;;;;5058222;28;20180;-81
2022/01/22 13:25:49;;;;;;;18.42;14.43;;;10.20;99.90;;;;;;5068064;28;20177;-79
2022/01/22 13:28:15;;;;;;;18.27;15.37;;;10.20;99.90;;;;;;5053755;28;20177;-82
2022/01/22 13:30:53;;;;;;;21.80;14.85;;;10.10;99.90;;;;;;5070156;28;20185;-81
2022/01/22 13:33:23;;;;;;;18.17;14.88;;;10.10;99.90;;;;;;5047916;28;20196;-81
2022/01/22 13:36:09;;;;;;;18.15;15.32;;;10.10;99.90;;;;;;5035636;28;20197;-81
2022/01/22 13:38:54;;;;;;;16.45;14.68;;;10.10;99.90;;;;;;5054809;28;20175;-82
2022/01/22 13:49:50;;;;;;;19.20;14.25;;;10.00;99.90;;;;;;5052084;28;20165;-79
2022/01/22 13:52:18;;;;;;;21.30;15.30;;;10.00;99.90;;;;;;5063004;28;20196;-79
2022/01/22 13:54:53;;;;;;;18.48;13.70;;;9.90;99.90;;;;;;5060261;28;20181;-79
2022/01/22 13:57:22;;;;;;;19.25;14.80;;;9.90;99.90;;;;;;5042493;28;20661;-81
2022/01/22 13:59:52;;;;;;;21.63;16.95;;;9.90;99.90;;;;;;5063224;28;20240;-76
2022/01/22 14:02:49;;;;;;;15.40;13.45;;;9.90;99.90;;;;;;5053376;28;20189;-78
2022/01/22 14:05:15;;;;;;;17.33;12.60;;;9.90;99.90;;;;;;5067114;28;20173;-79
2022/01/22 14:07:48;;;;;;;20.47;15.10;;;9.80;99.90;;;;;;5062978;28;20223;-79
2022/01/22 14:10:16;;;;;;;17.23;13.38;;;9.80;99.90;;;;;;5061099;28;20609;-77
2022/01/22 14:12:48;;;;;;;16.88;14.77;;;9.80;99.90;;;;;;5058976;28;20204;-80
2022/01/22 14:15:28;;;;;;;18.83;14.88;;;9.80;99.90;;;;;;5060836;28;20192;-79
2022/01/22 14:18:21;;;;;;;15.77;13.50;;;9.80;99.90;;;;;;5049989;28;20272;-79
2022/01/22 14:20:55;;;;;;;19.17;13.88;;;9.80;99.90;;;;;;5061311;28;20700;-76
2022/01/22 14:23:24;;;;;;;15.35;13.80;;;9.80;99.90;;;;;;5062492;28;20653;-79
2022/01/22 14:26:05;;;;;;;18.05;14.35;;;9.80;99.90;;;;;;5050142;28;20220;-79
2022/01/22 14:28:48;;;;;;;20.85;16.40;;;9.80;99.90;;;;;;5043448;28;20212;-78
2022/01/22 14:31:34;;;;;;;20.58;16.88;;;9.70;99.90;;;;;;5042476;28;20208;-78
2022/01/22 14:34:06;;;;;;;17.42;13.77;;;9.70;99.90;;;;;;5065172;28;20263;-77
2022/01/22 14:36:43;;;;;;;19.85;16.15;;;9.70;99.90;;;;;;5049513;28;20182;-77
2022/01/22 14:44:45;;;;;;;19.75;17.55;;;9.60;99.90;;;;;;5070477;28;20515;-78
2022/01/22 14:47:20;;;;;;;20.55;16.63;;;9.60;99.90;;;;;;5042089;28;20204;-77
2022/01/22 14:49:51;;;;;;;22.55;18.15;;;9.60;99.90;;;;;;5023616;28;20325;-78